sensor_id;sensor_type;location;lat;lon;timestamp;temperature;humidity
47174;DHT22;36730;49.036;9.094;2023-08-01T00:01:45;26.00;81.20
47174;DHT22;36730;49.036;9.094;2023-08-01T00:04:11;26.00;81.20
47174;DHT22;36730;49.036;9.094;2023-08-01T00:06:36;26.00;81.10
47174;DHT22;36730;49.036;9.094;2023-08-01T00:09:02;26.00;81.20
47174;DHT22;36730;49.036;9.094;2023-08-01T00:11:27;26.00;81.30
47174;DHT22;36730;49.036;9.094;2023-08-01T00:13:53;26.00;81.20
47174;DHT22;36730;49.036;9.094;2023-08-01T00:16:18;26.00;81.30
47174;DHT22;36730;49.036;9.094;2023-08-01T00:18:44;26.00;81.50
47174;DHT22;36730;49.036;9.094;2023-08-01T00:21:09;26.00;81.40
47174;DHT22;36730;49.036;9.094;2023-08-01T00:23:36;25.90;81.30
47174;DHT22;36730;49.036;9.094;2023-08-01T00:26:02;26.00;81.40
47174;DHT22;36730;49.036;9.094;2023-08-01T00:28:28;26.00;81.30
47174;DHT22;36730;49.036;9.094;2023-08-01T00:31:04;25.90;81.30
47174;DHT22;36730;49.036;9.094;2023-08-01T00:33:29;25.90;81.30
47174;DHT22;36730;49.036;9.094;2023-08-01T00:35:55;25.90;81.60
47174;DHT22;36730;49.036;9.094;2023-08-01T00:38:20;25.90;81.60
47174;DHT22;36730;49.036;9.094;2023-08-01T00:40:45;25.90;81.60
47174;DHT22;36730;49.036;9.094;2023-08-01T00:43:12;25.90;81.60
47174;DHT22;36730;49.036;9.094;2023-08-01T00:45:37;25.90;81.70
47174;DHT22;36730;49.036;9.094;2023-08-01T00:48:03;25.90;81.60
47174;DHT22;36730;49.036;9.094;2023-08-01T00:50:28;25.90;81.80
47174;DHT22;36730;49.036;9.094;2023-08-01T00:52:54;25.90;81.80
47174;DHT22;36730;49.036;9.094;2023-08-01T00:55:21;25.90;81.80
47174;DHT22;36730;49.036;9.094;2023-08-01T00:57:46;25.90;82.00
47174;DHT22;36730;49.036;9.094;2023-08-01T01:00:12;25.90;82.00
47174;DHT22;36730;49.036;9.094;2023-08-01T01:02:38;25.90;81.90
47174;DHT22;36730;49.036;9.094;2023-08-01T01:05:03;25.90;81.90
47174;DHT22;36730;49.036;9.094;2023-08-01T01:07:30;25.90;81.90
47174;DHT22;36730;49.036;9.094;2023-08-01T01:09:57;25.80;81.90
47174;DHT22;36730;49.036;9.094;2023-08-01T01:12:22;25.90;82.20
47174;DHT22;36730;49.036;9.094;2023-08-01T01:14:48;25.80;82.10
47174;DHT22;36730;49.036;9.094;2023-08-01T01:17:13;25.90;82.40
47174;DHT22;36730;49.036;9.094;2023-08-01T01:19:39;25.80;82.10
47174;DHT22;36730;49.036;9.094;2023-08-01T01:22:04;25.80;82.10
47174;DHT22;36730;49.036;9.094;2023-08-01T01:24:31;25.80;82.20
47174;DHT22;36730;49.036;9.094;2023-08-01T01:26:58;25.90;82.20
47174;DHT22;36730;49.036;9.094;2023-08-01T01:29:25;25.80;82.20
47174;DHT22;36730;49.036;9.094;2023-08-01T01:31:51;25.80;82.20
47174;DHT22;36730;49.036;9.094;2023-08-01T01:34:17;25.80;82.30
47174;DHT22;36730;49.036;9.094;2023-08-01T01:36:43;25.80;82.30
47174;DHT22;36730;49.036;9.094;2023-08-01T01:39:08;25.80;82.30
47174;DHT22;36730;49.036;9.094;2023-08-01T01:41:34;25.80;82.20
47174;DHT22;36730;49.036;9.094;2023-08-01T01:43:59;25.80;82.30
47174;DHT22;36730;49.036;9.094;2023-08-01T01:46:25;25.80;82.20
47174;DHT22;36730;49.036;9.094;2023-08-01T01:48:50;25.80;82.50
47174;DHT22;36730;49.036;9.094;2023-08-01T01:51:16;25.80;82.50
47174;DHT22;36730;49.036;9.094;2023-08-01T01:53:41;25.80;82.60
47174;DHT22;36730;49.036;9.094;2023-08-01T01:56:07;25.80;82.60
47174;DHT22;36730;49.036;9.094;2023-08-01T01:58:33;25.80;82.60
47174;DHT22;36730;49.036;9.094;2023-08-01T02:00:58;25.80;83.10
47174;DHT22;36730;49.036;9.094;2023-08-01T02:03:24;25.80;82.80
47174;DHT22;36730;49.036;9.094;2023-08-01T02:05:49;25.80;82.60
47174;DHT22;36730;49.036;9.094;2023-08-01T02:08:14;25.70;83.20
47174;DHT22;36730;49.036;9.094;2023-08-01T02:10:40;25.80;82.90
47174;DHT22;36730;49.036;9.094;2023-08-01T02:13:06;25.70;82.70
47174;DHT22;36730;49.036;9.094;2023-08-01T02:15:31;25.70;82.90
47174;DHT22;36730;49.036;9.094;2023-08-01T02:17:56;25.70;82.70
47174;DHT22;36730;49.036;9.094;2023-08-01T02:20:22;25.80;82.90
47174;DHT22;36730;49.036;9.094;2023-08-01T02:22:47;25.70;82.70
47174;DHT22;36730;49.036;9.094;2023-08-01T02:25:13;25.70;82.70
47174;DHT22;36730;49.036;9.094;2023-08-01T02:27:38;25.80;83.00
47174;DHT22;36730;49.036;9.094;2023-08-01T02:30:04;25.70;82.90
47174;DHT22;36730;49.036;9.094;2023-08-01T02:32:30;25.80;83.00
47174;DHT22;36730;49.036;9.094;2023-08-01T02:34:56;25.70;82.90
47174;DHT22;36730;49.036;9.094;2023-08-01T02:37:21;25.70;82.90
47174;DHT22;36730;49.036;9.094;2023-08-01T02:39:47;25.70;82.90
47174;DHT22;36730;49.036;9.094;2023-08-01T02:42:12;25.70;82.90
47174;DHT22;36730;49.036;9.094;2023-08-01T02:44:38;25.70;83.10
47174;DHT22;36730;49.036;9.094;2023-08-01T02:47:03;25.70;83.30
47174;DHT22;36730;49.036;9.094;2023-08-01T02:49:29;25.70;83.40
47174;DHT22;36730;49.036;9.094;2023-08-01T02:51:54;25.70;83.00
47174;DHT22;36730;49.036;9.094;2023-08-01T02:54:19;25.70;83.00
47174;DHT22;36730;49.036;9.094;2023-08-01T02:56:45;25.70;83.10
47174;DHT22;36730;49.036;9.094;2023-08-01T02:59:10;25.70;83.20
47174;DHT22;36730;49.036;9.094;2023-08-01T03:01:36;25.70;83.30
47174;DHT22;36730;49.036;9.094;2023-08-01T03:04:02;25.70;83.40
47174;DHT22;36730;49.036;9.094;2023-08-01T03:06:28;25.70;83.20
47174;DHT22;36730;49.036;9.094;2023-08-01T03:08:53;25.70;83.70
47174;DHT22;36730;49.036;9.094;2023-08-01T03:11:19;25.70;83.40
47174;DHT22;36730;49.036;9.094;2023-08-01T03:13:44;25.70;83.20
47174;DHT22;36730;49.036;9.094;2023-08-01T03:16:10;25.70;83.40
47174;DHT22;36730;49.036;9.094;2023-08-01T03:18:35;25.70;83.50
47174;DHT22;36730;49.036;9.094;2023-08-01T03:21:01;25.70;83.60
47174;DHT22;36730;49.036;9.094;2023-08-01T03:23:29;25.70;83.90
47174;DHT22;36730;49.036;9.094;2023-08-01T03:25:54;25.70;83.70
47174;DHT22;36730;49.036;9.094;2023-08-01T03:28:20;25.70;83.60
47174;DHT22;36730;49.036;9.094;2023-08-01T03:30:46;25.70;83.70
47174;DHT22;36730;49.036;9.094;2023-08-01T03:33:15;25.70;83.70
47174;DHT22;36730;49.036;9.094;2023-08-01T03:35:40;25.70;83.70
47174;DHT22;36730;49.036;9.094;2023-08-01T03:38:06;25.70;83.50
47174;DHT22;36730;49.036;9.094;2023-08-01T03:40:31;25.80;83.30
47174;DHT22;36730;49.036;9.094;2023-08-01T03:42:57;25.80;83.90
47174;DHT22;36730;49.036;9.094;2023-08-01T03:45:22;25.80;85.10
47174;DHT22;36730;49.036;9.094;2023-08-01T03:47:47;25.80;84.10
47174;DHT22;36730;49.036;9.094;2023-08-01T03:50:13;25.70;84.00
47174;DHT22;36730;49.036;9.094;2023-08-01T03:52:39;25.70;84.50
47174;DHT22;36730;49.036;9.094;2023-08-01T03:55:04;25.70;85.30
47174;DHT22;36730;49.036;9.094;2023-08-01T03:57:30;25.70;85.00
47174;DHT22;36730;49.036;9.094;2023-08-01T03:59:59;25.70;85.70
47174;DHT22;36730;49.036;9.094;2023-08-01T04:02:24;25.70;85.60
47174;DHT22;36730;49.036;9.094;2023-08-01T04:04:50;25.70;85.10
47174;DHT22;36730;49.036;9.094;2023-08-01T04:07:15;25.70;85.40
47174;DHT22;36730;49.036;9.094;2023-08-01T04:09:41;25.80;84.80
47174;DHT22;36730;49.036;9.094;2023-08-01T04:12:06;25.80;84.90
47174;DHT22;36730;49.036;9.094;2023-08-01T04:14:32;25.80;84.50
47174;DHT22;36730;49.036;9.094;2023-08-01T04:16:57;25.80;84.50
47174;DHT22;36730;49.036;9.094;2023-08-01T04:19:23;25.80;84.70
47174;DHT22;36730;49.036;9.094;2023-08-01T04:21:50;25.90;84.60
47174;DHT22;36730;49.036;9.094;2023-08-01T04:24:15;25.90;84.20
47174;DHT22;36730;49.036;9.094;2023-08-01T04:26:41;25.90;85.20
47174;DHT22;36730;49.036;9.094;2023-08-01T04:29:06;26.00;84.20
47174;DHT22;36730;49.036;9.094;2023-08-01T04:31:32;26.00;83.90
47174;DHT22;36730;49.036;9.094;2023-08-01T04:33:57;26.00;83.90
47174;DHT22;36730;49.036;9.094;2023-08-01T04:36:23;26.10;83.90
47174;DHT22;36730;49.036;9.094;2023-08-01T04:38:48;26.10;84.20
47174;DHT22;36730;49.036;9.094;2023-08-01T04:41:14;26.10;83.80
47174;DHT22;36730;49.036;9.094;2023-08-01T04:43:39;26.10;83.40
47174;DHT22;36730;49.036;9.094;2023-08-01T04:46:05;26.20;83.30
47174;DHT22;36730;49.036;9.094;2023-08-01T04:48:30;26.20;83.70
47174;DHT22;36730;49.036;9.094;2023-08-01T04:50:56;26.20;84.50
47174;DHT22;36730;49.036;9.094;2023-08-01T04:53:21;26.20;83.60
47174;DHT22;36730;49.036;9.094;2023-08-01T04:55:47;26.20;83.00
47174;DHT22;36730;49.036;9.094;2023-08-01T04:58:12;26.20;83.50
47174;DHT22;36730;49.036;9.094;2023-08-01T05:00:38;26.30;83.30
47174;DHT22;36730;49.036;9.094;2023-08-01T05:03:03;26.30;83.50
47174;DHT22;36730;49.036;9.094;2023-08-01T05:05:29;26.30;83.00
47174;DHT22;36730;49.036;9.094;2023-08-01T05:07:54;26.30;83.30
47174;DHT22;36730;49.036;9.094;2023-08-01T05:10:19;26.40;82.70
47174;DHT22;36730;49.036;9.094;2023-08-01T05:12:45;26.40;83.10
47174;DHT22;36730;49.036;9.094;2023-08-01T05:15:10;26.40;82.80
47174;DHT22;36730;49.036;9.094;2023-08-01T05:17:36;26.40;81.90
47174;DHT22;36730;49.036;9.094;2023-08-01T05:20:02;26.30;82.50
47174;DHT22;36730;49.036;9.094;2023-08-01T05:22:29;26.30;82.30
47174;DHT22;36730;49.036;9.094;2023-08-01T05:24:55;26.40;82.20
47174;DHT22;36730;49.036;9.094;2023-08-01T05:27:20;26.30;81.70
47174;DHT22;36730;49.036;9.094;2023-08-01T05:29:46;26.30;81.80
47174;DHT22;36730;49.036;9.094;2023-08-01T05:32:11;26.30;82.10
47174;DHT22;36730;49.036;9.094;2023-08-01T05:34:36;26.30;81.60
47174;DHT22;36730;49.036;9.094;2023-08-01T05:37:02;26.40;82.30
47174;DHT22;36730;49.036;9.094;2023-08-01T05:39:27;26.40;81.80
47174;DHT22;36730;49.036;9.094;2023-08-01T05:41:53;26.40;82.00
47174;DHT22;36730;49.036;9.094;2023-08-01T05:44:18;26.40;81.20
47174;DHT22;36730;49.036;9.094;2023-08-01T05:46:44;26.40;81.80
47174;DHT22;36730;49.036;9.094;2023-08-01T05:49:09;26.40;81.70
47174;DHT22;36730;49.036;9.094;2023-08-01T05:51:35;26.40;82.60
47174;DHT22;36730;49.036;9.094;2023-08-01T05:54:00;26.40;82.00
47174;DHT22;36730;49.036;9.094;2023-08-01T05:56:26;26.50;82.30
47174;DHT22;36730;49.036;9.094;2023-08-01T05:58:51;26.50;82.10
47174;DHT22;36730;49.036;9.094;2023-08-01T06:01:17;26.50;81.60
47174;DHT22;36730;49.036;9.094;2023-08-01T06:03:42;26.50;82.50
47174;DHT22;36730;49.036;9.094;2023-08-01T06:06:08;26.40;82.80
47174;DHT22;36730;49.036;9.094;2023-08-01T06:08:33;26.40;82.60
47174;DHT22;36730;49.036;9.094;2023-08-01T06:10:59;26.30;83.10
47174;DHT22;36730;49.036;9.094;2023-08-01T06:13:24;26.30;83.60
47174;DHT22;36730;49.036;9.094;2023-08-01T06:15:50;26.20;84.20
47174;DHT22;36730;49.036;9.094;2023-08-01T06:18:15;26.20;84.20
47174;DHT22;36730;49.036;9.094;2023-08-01T06:20:41;26.20;84.30
47174;DHT22;36730;49.036;9.094;2023-08-01T06:23:06;26.20;84.70
47174;DHT22;36730;49.036;9.094;2023-08-01T06:25:32;26.20;84.80
47174;DHT22;36730;49.036;9.094;2023-08-01T06:27:57;26.20;84.30
47174;DHT22;36730;49.036;9.094;2023-08-01T06:30:22;26.30;84.70
47174;DHT22;36730;49.036;9.094;2023-08-01T06:32:48;26.30;84.40
47174;DHT22;36730;49.036;9.094;2023-08-01T06:35:13;26.40;85.20
47174;DHT22;36730;49.036;9.094;2023-08-01T06:37:39;26.40;84.50
47174;DHT22;36730;49.036;9.094;2023-08-01T06:40:05;26.30;84.60
47174;DHT22;36730;49.036;9.094;2023-08-01T06:42:30;26.30;84.20
47174;DHT22;36730;49.036;9.094;2023-08-01T06:44:56;26.30;84.30
47174;DHT22;36730;49.036;9.094;2023-08-01T06:47:21;26.30;84.10
47174;DHT22;36730;49.036;9.094;2023-08-01T06:49:47;26.30;84.40
47174;DHT22;36730;49.036;9.094;2023-08-01T06:52:12;26.30;84.40
47174;DHT22;36730;49.036;9.094;2023-08-01T06:54:38;26.30;84.80
47174;DHT22;36730;49.036;9.094;2023-08-01T06:57:05;26.40;84.00
47174;DHT22;36730;49.036;9.094;2023-08-01T06:59:31;26.30;84.60
47174;DHT22;36730;49.036;9.094;2023-08-01T07:01:56;26.30;84.30
47174;DHT22;36730;49.036;9.094;2023-08-01T07:04:22;26.30;84.30
47174;DHT22;36730;49.036;9.094;2023-08-01T07:06:49;26.30;84.10
47174;DHT22;36730;49.036;9.094;2023-08-01T07:09:14;26.30;84.60
47174;DHT22;36730;49.036;9.094;2023-08-01T07:11:40;26.30;84.80
47174;DHT22;36730;49.036;9.094;2023-08-01T07:14:06;26.40;84.60
47174;DHT22;36730;49.036;9.094;2023-08-01T07:16:31;26.40;84.60
47174;DHT22;36730;49.036;9.094;2023-08-01T07:18:57;26.40;83.90
47174;DHT22;36730;49.036;9.094;2023-08-01T07:21:23;26.40;84.50
47174;DHT22;36730;49.036;9.094;2023-08-01T07:23:48;26.40;84.20
47174;DHT22;36730;49.036;9.094;2023-08-01T07:26:14;26.40;84.80
47174;DHT22;36730;49.036;9.094;2023-08-01T07:28:39;26.40;84.70
47174;DHT22;36730;49.036;9.094;2023-08-01T07:31:05;26.40;84.30
47174;DHT22;36730;49.036;9.094;2023-08-01T07:33:32;26.40;84.40
47174;DHT22;36730;49.036;9.094;2023-08-01T07:35:57;26.30;84.20
47174;DHT22;36730;49.036;9.094;2023-08-01T07:38:23;26.30;84.90
47174;DHT22;36730;49.036;9.094;2023-08-01T07:40:48;26.30;84.30
47174;DHT22;36730;49.036;9.094;2023-08-01T07:43:14;26.30;84.50
47174;DHT22;36730;49.036;9.094;2023-08-01T07:45:39;26.30;84.40
47174;DHT22;36730;49.036;9.094;2023-08-01T07:48:05;26.30;84.40
47174;DHT22;36730;49.036;9.094;2023-08-01T07:50:30;26.20;85.50
47174;DHT22;36730;49.036;9.094;2023-08-01T07:52:56;26.20;85.00
47174;DHT22;36730;49.036;9.094;2023-08-01T07:55:22;26.20;84.70
47174;DHT22;36730;49.036;9.094;2023-08-01T07:57:48;26.20;84.60
47174;DHT22;36730;49.036;9.094;2023-08-01T08:00:13;26.20;84.60
47174;DHT22;36730;49.036;9.094;2023-08-01T08:02:41;26.20;84.40
47174;DHT22;36730;49.036;9.094;2023-08-01T08:05:07;26.20;84.50
47174;DHT22;36730;49.036;9.094;2023-08-01T08:07:32;26.30;84.40
47174;DHT22;36730;49.036;9.094;2023-08-01T08:09:58;26.30;84.30
47174;DHT22;36730;49.036;9.094;2023-08-01T08:12:23;26.30;83.80
47174;DHT22;36730;49.036;9.094;2023-08-01T08:14:49;26.30;84.20
47174;DHT22;36730;49.036;9.094;2023-08-01T08:17:14;26.30;84.10
47174;DHT22;36730;49.036;9.094;2023-08-01T08:19:40;26.40;83.80
47174;DHT22;36730;49.036;9.094;2023-08-01T08:22:06;26.40;83.90
47174;DHT22;36730;49.036;9.094;2023-08-01T08:24:32;26.40;83.80
47174;DHT22;36730;49.036;9.094;2023-08-01T08:26:57;26.50;83.50
47174;DHT22;36730;49.036;9.094;2023-08-01T08:29:23;26.40;83.10
47174;DHT22;36730;49.036;9.094;2023-08-01T08:31:48;26.40;83.30
47174;DHT22;36730;49.036;9.094;2023-08-01T08:34:13;26.40;83.60
47174;DHT22;36730;49.036;9.094;2023-08-01T08:36:39;26.40;84.60
47174;DHT22;36730;49.036;9.094;2023-08-01T08:39:04;26.40;84.10
47174;DHT22;36730;49.036;9.094;2023-08-01T08:41:33;26.40;84.40
47174;DHT22;36730;49.036;9.094;2023-08-01T08:43:59;26.40;84.40
47174;DHT22;36730;49.036;9.094;2023-08-01T08:46:27;26.40;84.50
47174;DHT22;36730;49.036;9.094;2023-08-01T08:48:53;26.40;84.20
47174;DHT22;36730;49.036;9.094;2023-08-01T08:51:19;26.40;84.40
47174;DHT22;36730;49.036;9.094;2023-08-01T08:53:45;26.40;84.00
47174;DHT22;36730;49.036;9.094;2023-08-01T08:56:12;26.40;84.80
47174;DHT22;36730;49.036;9.094;2023-08-01T08:58:38;26.40;84.80
47174;DHT22;36730;49.036;9.094;2023-08-01T09:01:06;26.40;84.70
47174;DHT22;36730;49.036;9.094;2023-08-01T09:03:33;26.40;84.60
47174;DHT22;36730;49.036;9.094;2023-08-01T09:06:17;26.40;85.00
47174;DHT22;36730;49.036;9.094;2023-08-01T09:08:50;26.50;84.80
47174;DHT22;36730;49.036;9.094;2023-08-01T09:11:16;26.50;84.70
47174;DHT22;36730;49.036;9.094;2023-08-01T09:13:41;26.60;84.90
47174;DHT22;36730;49.036;9.094;2023-08-01T09:16:07;26.50;84.70
47174;DHT22;36730;49.036;9.094;2023-08-01T09:18:33;26.60;84.50
47174;DHT22;36730;49.036;9.094;2023-08-01T09:20:59;26.60;84.30
47174;DHT22;36730;49.036;9.094;2023-08-01T09:23:27;26.60;84.80
47174;DHT22;36730;49.036;9.094;2023-08-01T09:25:53;26.60;84.50
47174;DHT22;36730;49.036;9.094;2023-08-01T09:28:19;26.70;85.20
47174;DHT22;36730;49.036;9.094;2023-08-01T09:30:49;26.70;84.30
47174;DHT22;36730;49.036;9.094;2023-08-01T09:33:15;26.70;84.90
47174;DHT22;36730;49.036;9.094;2023-08-01T09:35:40;26.70;84.50
47174;DHT22;36730;49.036;9.094;2023-08-01T09:38:06;26.70;84.00
47174;DHT22;36730;49.036;9.094;2023-08-01T09:40:38;26.80;84.60
47174;DHT22;36730;49.036;9.094;2023-08-01T09:43:03;26.70;85.60
47174;DHT22;36730;49.036;9.094;2023-08-01T09:45:29;26.70;84.20
47174;DHT22;36730;49.036;9.094;2023-08-01T09:47:54;26.70;85.70
47174;DHT22;36730;49.036;9.094;2023-08-01T09:50:22;26.70;84.90
47174;DHT22;36730;49.036;9.094;2023-08-01T09:52:48;26.70;85.70
47174;DHT22;36730;49.036;9.094;2023-08-01T09:55:19;26.70;85.60
47174;DHT22;36730;49.036;9.094;2023-08-01T09:57:46;26.70;85.00
47174;DHT22;36730;49.036;9.094;2023-08-01T10:00:14;26.70;84.10
47174;DHT22;36730;49.036;9.094;2023-08-01T10:02:39;26.70;83.70
47174;DHT22;36730;49.036;9.094;2023-08-01T10:05:06;26.20;84.30
47174;DHT22;36730;49.036;9.094;2023-08-01T10:07:32;26.10;84.00
47174;DHT22;36730;49.036;9.094;2023-08-01T10:09:58;25.90;84.60
47174;DHT22;36730;49.036;9.094;2023-08-01T10:12:28;25.80;85.60
47174;DHT22;36730;49.036;9.094;2023-08-01T10:14:54;25.70;84.30
47174;DHT22;36730;49.036;9.094;2023-08-01T10:17:21;25.50;84.70
47174;DHT22;36730;49.036;9.094;2023-08-01T10:19:47;25.50;86.00
47174;DHT22;36730;49.036;9.094;2023-08-01T10:22:13;25.40;85.80
47174;DHT22;36730;49.036;9.094;2023-08-01T10:24:39;25.40;86.00
47174;DHT22;36730;49.036;9.094;2023-08-01T10:27:20;25.40;85.90
47174;DHT22;36730;49.036;9.094;2023-08-01T10:29:59;25.30;87.10
47174;DHT22;36730;49.036;9.094;2023-08-01T10:32:31;25.30;86.80
47174;DHT22;36730;49.036;9.094;2023-08-01T10:34:58;25.10;86.60
47174;DHT22;36730;49.036;9.094;2023-08-01T10:37:23;25.10;88.30
47174;DHT22;36730;49.036;9.094;2023-08-01T10:39:56;25.10;87.80
47174;DHT22;36730;49.036;9.094;2023-08-01T10:42:21;25.10;88.20
47174;DHT22;36730;49.036;9.094;2023-08-01T10:44:47;25.10;87.20
47174;DHT22;36730;49.036;9.094;2023-08-01T10:47:12;25.10;87.10
47174;DHT22;36730;49.036;9.094;2023-08-01T10:52:04;25.10;86.30
47174;DHT22;36730;49.036;9.094;2023-08-01T10:54:40;25.10;85.80
47174;DHT22;36730;49.036;9.094;2023-08-01T10:57:06;25.10;85.30
47174;DHT22;36730;49.036;9.094;2023-08-01T10:59:31;25.20;84.10
47174;DHT22;36730;49.036;9.094;2023-08-01T11:01:58;25.30;83.80
47174;DHT22;36730;49.036;9.094;2023-08-01T11:04:24;25.40;83.10
47174;DHT22;36730;49.036;9.094;2023-08-01T11:06:50;25.40;82.40
47174;DHT22;36730;49.036;9.094;2023-08-01T11:09:20;25.40;78.80
47174;DHT22;36730;49.036;9.094;2023-08-01T11:11:46;25.40;80.30
47174;DHT22;36730;49.036;9.094;2023-08-01T11:14:13;25.50;80.80
47174;DHT22;36730;49.036;9.094;2023-08-01T11:16:39;25.60;76.80
47174;DHT22;36730;49.036;9.094;2023-08-01T11:19:05;25.60;76.30
47174;DHT22;36730;49.036;9.094;2023-08-01T11:21:30;25.50;75.30
47174;DHT22;36730;49.036;9.094;2023-08-01T11:23:56;25.50;75.40
47174;DHT22;36730;49.036;9.094;2023-08-01T11:26:21;25.60;75.30
47174;DHT22;36730;49.036;9.094;2023-08-01T11:28:47;25.60;75.20
47174;DHT22;36730;49.036;9.094;2023-08-01T11:31:13;25.60;72.70
47174;DHT22;36730;49.036;9.094;2023-08-01T11:33:38;25.50;71.70
47174;DHT22;36730;49.036;9.094;2023-08-01T11:36:04;25.60;70.50
47174;DHT22;36730;49.036;9.094;2023-08-01T11:38:31;25.60;70.60
47174;DHT22;36730;49.036;9.094;2023-08-01T11:40:58;25.70;69.50
47174;DHT22;36730;49.036;9.094;2023-08-01T11:43:24;25.80;71.20
47174;DHT22;36730;49.036;9.094;2023-08-01T11:45:53;25.70;70.70
47174;DHT22;36730;49.036;9.094;2023-08-01T11:48:24;25.70;68.70
47174;DHT22;36730;49.036;9.094;2023-08-01T11:50:56;25.70;68.50
47174;DHT22;36730;49.036;9.094;2023-08-01T11:53:22;25.60;69.20
47174;DHT22;36730;49.036;9.094;2023-08-01T11:55:51;25.70;69.50
47174;DHT22;36730;49.036;9.094;2023-08-01T11:58:31;25.70;68.80
47174;DHT22;36730;49.036;9.094;2023-08-01T12:01:04;25.70;68.20
47174;DHT22;36730;49.036;9.094;2023-08-01T12:03:30;25.70;68.30
47174;DHT22;36730;49.036;9.094;2023-08-01T12:06:05;25.70;68.60
47174;DHT22;36730;49.036;9.094;2023-08-01T12:08:32;25.70;69.20
47174;DHT22;36730;49.036;9.094;2023-08-01T12:10:58;25.80;69.80
47174;DHT22;36730;49.036;9.094;2023-08-01T12:13:24;25.60;69.00
47174;DHT22;36730;49.036;9.094;2023-08-01T12:15:50;25.70;69.60
47174;DHT22;36730;49.036;9.094;2023-08-01T12:18:19;25.70;68.60
47174;DHT22;36730;49.036;9.094;2023-08-01T12:20:45;25.70;68.40
47174;DHT22;36730;49.036;9.094;2023-08-01T12:23:11;25.70;68.60
47174;DHT22;36730;49.036;9.094;2023-08-01T12:25:36;25.70;70.10
47174;DHT22;36730;49.036;9.094;2023-08-01T12:28:02;25.80;68.80
47174;DHT22;36730;49.036;9.094;2023-08-01T12:30:27;25.90;69.10
47174;DHT22;36730;49.036;9.094;2023-08-01T12:32:53;25.90;67.20
47174;DHT22;36730;49.036;9.094;2023-08-01T12:35:18;25.80;66.60
47174;DHT22;36730;49.036;9.094;2023-08-01T12:37:44;25.90;65.60
47174;DHT22;36730;49.036;9.094;2023-08-01T12:40:09;25.80;65.20
47174;DHT22;36730;49.036;9.094;2023-08-01T12:42:35;25.80;64.60
47174;DHT22;36730;49.036;9.094;2023-08-01T12:45:00;25.90;63.70
47174;DHT22;36730;49.036;9.094;2023-08-01T12:47:26;25.80;63.40
47174;DHT22;36730;49.036;9.094;2023-08-01T12:49:51;25.80;63.70
47174;DHT22;36730;49.036;9.094;2023-08-01T12:52:23;26.00;63.10
47174;DHT22;36730;49.036;9.094;2023-08-01T12:54:49;26.10;63.00
47174;DHT22;36730;49.036;9.094;2023-08-01T12:57:15;26.20;63.00
47174;DHT22;36730;49.036;9.094;2023-08-01T12:59:40;26.30;63.40
47174;DHT22;36730;49.036;9.094;2023-08-01T13:02:06;26.30;61.80
47174;DHT22;36730;49.036;9.094;2023-08-01T13:04:36;26.30;61.40
47174;DHT22;36730;49.036;9.094;2023-08-01T13:07:02;26.30;60.50
47174;DHT22;36730;49.036;9.094;2023-08-01T13:09:27;26.30;61.70
47174;DHT22;36730;49.036;9.094;2023-08-01T13:11:53;26.30;60.40
47174;DHT22;36730;49.036;9.094;2023-08-01T13:14:18;26.40;60.60
47174;DHT22;36730;49.036;9.094;2023-08-01T13:16:44;26.50;60.90
47174;DHT22;36730;49.036;9.094;2023-08-01T13:19:09;26.50;61.00
47174;DHT22;36730;49.036;9.094;2023-08-01T13:21:35;26.60;61.50
47174;DHT22;36730;49.036;9.094;2023-08-01T13:24:00;26.60;60.90
47174;DHT22;36730;49.036;9.094;2023-08-01T13:26:33;26.50;57.50
47174;DHT22;36730;49.036;9.094;2023-08-01T13:28:58;26.50;58.50
47174;DHT22;36730;49.036;9.094;2023-08-01T13:31:25;26.50;59.20
47174;DHT22;36730;49.036;9.094;2023-08-01T13:33:50;26.60;59.30
47174;DHT22;36730;49.036;9.094;2023-08-01T13:36:19;26.70;60.00
47174;DHT22;36730;49.036;9.094;2023-08-01T13:38:44;26.80;59.20
47174;DHT22;36730;49.036;9.094;2023-08-01T13:41:10;26.80;58.90
47174;DHT22;36730;49.036;9.094;2023-08-01T13:43:35;26.90;58.60
47174;DHT22;36730;49.036;9.094;2023-08-01T13:46:07;26.90;58.40
47174;DHT22;36730;49.036;9.094;2023-08-01T13:48:32;27.00;58.40
47174;DHT22;36730;49.036;9.094;2023-08-01T13:50:58;27.00;58.20
47174;DHT22;36730;49.036;9.094;2023-08-01T13:53:24;27.00;58.00
47174;DHT22;36730;49.036;9.094;2023-08-01T13:55:49;27.00;56.70
47174;DHT22;36730;49.036;9.094;2023-08-01T13:58:15;27.00;56.80
47174;DHT22;36730;49.036;9.094;2023-08-01T14:00:40;27.10;57.50
47174;DHT22;36730;49.036;9.094;2023-08-01T14:03:06;27.10;56.90
47174;DHT22;36730;49.036;9.094;2023-08-01T14:05:31;27.10;56.70
47174;DHT22;36730;49.036;9.094;2023-08-01T14:07:57;27.00;54.90
47174;DHT22;36730;49.036;9.094;2023-08-01T14:10:22;26.90;54.70
47174;DHT22;36730;49.036;9.094;2023-08-01T14:12:48;26.90;56.50
47174;DHT22;36730;49.036;9.094;2023-08-01T14:15:13;26.90;55.40
47174;DHT22;36730;49.036;9.094;2023-08-01T14:17:39;26.90;54.70
47174;DHT22;36730;49.036;9.094;2023-08-01T14:20:05;26.80;55.50
47174;DHT22;36730;49.036;9.094;2023-08-01T14:22:30;26.80;55.90
47174;DHT22;36730;49.036;9.094;2023-08-01T14:24:56;26.80;54.90
47174;DHT22;36730;49.036;9.094;2023-08-01T14:27:22;26.80;55.10
47174;DHT22;36730;49.036;9.094;2023-08-01T14:29:47;26.80;55.30
47174;DHT22;36730;49.036;9.094;2023-08-01T14:32:13;26.70;55.90
47174;DHT22;36730;49.036;9.094;2023-08-01T14:34:39;26.60;56.10
47174;DHT22;36730;49.036;9.094;2023-08-01T14:37:05;26.60;56.50
47174;DHT22;36730;49.036;9.094;2023-08-01T14:39:30;26.60;56.50
47174;DHT22;36730;49.036;9.094;2023-08-01T14:41:56;26.60;56.70
47174;DHT22;36730;49.036;9.094;2023-08-01T14:44:21;26.60;57.40
47174;DHT22;36730;49.036;9.094;2023-08-01T14:46:46;26.60;57.40
47174;DHT22;36730;49.036;9.094;2023-08-01T14:49:12;26.70;57.30
47174;DHT22;36730;49.036;9.094;2023-08-01T14:51:38;26.70;57.30
47174;DHT22;36730;49.036;9.094;2023-08-01T14:54:03;26.80;56.90
47174;DHT22;36730;49.036;9.094;2023-08-01T14:56:29;26.80;56.90
47174;DHT22;36730;49.036;9.094;2023-08-01T14:58:54;26.90;57.10
47174;DHT22;36730;49.036;9.094;2023-08-01T15:01:20;26.90;57.50
47174;DHT22;36730;49.036;9.094;2023-08-01T15:03:45;26.80;56.40
47174;DHT22;36730;49.036;9.094;2023-08-01T15:06:11;26.80;56.60
47174;DHT22;36730;49.036;9.094;2023-08-01T15:08:38;26.80;56.80
47174;DHT22;36730;49.036;9.094;2023-08-01T15:11:04;26.90;56.80
47174;DHT22;36730;49.036;9.094;2023-08-01T15:13:30;26.90;56.90
47174;DHT22;36730;49.036;9.094;2023-08-01T15:15:55;26.90;57.30
47174;DHT22;36730;49.036;9.094;2023-08-01T15:18:21;27.00;56.60
47174;DHT22;36730;49.036;9.094;2023-08-01T15:20:46;27.00;56.60
47174;DHT22;36730;49.036;9.094;2023-08-01T15:23:12;27.10;56.60
47174;DHT22;36730;49.036;9.094;2023-08-01T15:25:37;27.10;56.50